Time,TemperatureF,DewpointF,PressureIn,WindDirection,WindDirectionDegrees,WindSpeedMPH,WindSpeedGustMPH,Humidity,HourlyPrecipIn,Conditions,Clouds,dailyrainin,SoftwareType,DateUTC
2013-05-06 00:01:00,43.5,32.1,30.19,SW,217,0.0,1.0,64,0.00,,,0.00,Wunderground v.1.15,2013-05-06 04:01:00,
2013-05-06 00:02:00,43.5,32.1,30.19,SW,217,0.0,1.0,64,0.00,,,0.00,Wunderground v.1.15,2013-05-06 04:02:00,
2013-05-06 00:04:00,43.4,32.0,30.19,SW,217,0.0,1.0,64,0.00,,,0.00,Wunderground v.1.15,2013-05-06 04:04:00,
2013-05-06 00:06:00,43.2,32.2,30.19,SW,218,0.0,1.0,65,0.00,,,0.00,Wunderground v.1.15,2013-05-06 04:06:00,
2013-05-06 00:08:00,42.8,32.6,30.19,WSW,238,0.0,2.0,67,0.00,,,0.00,Wunderground v.1.15,2013-05-06 04:08:00,
2013-05-06 00:13:00,41.8,32.7,30.19,NNW,334,1.0,1.0,70,0.00,,,0.00,Wunderground v.1.15,2013-05-06 04:13:00,
2013-05-06 00:18:00,41.5,33.1,30.19,NNE,22,1.0,1.0,72,0.00,,,0.00,Wunderground v.1.15,2013-05-06 04:18:00,
2013-05-06 00:23:00,41.3,33.0,30.19,NW,311,1.0,1.0,72,0.00,,,0.00,Wunderground v.1.15,2013-05-06 04:23:00,
2013-05-06 00:28:00,41.3,32.6,30.19,NW,311,1.0,1.0,71,0.00,,,0.00,Wunderground v.1.15,2013-05-06 04:28:00,
2013-05-06 00:34:00,42.0,32.6,30.19,NW,312,0.0,1.0,69,0.00,,,0.00,Wunderground v.1.15,2013-05-06 04:34:00,
2013-05-06 00:39:00,43.0,32.8,30.19,NW,312,0.0,1.0,67,0.00,,,0.00,Wunderground v.1.15,2013-05-06 04:39:00,
2013-05-06 00:44:00,44.0,33.0,30.19,NW,311,0.0,1.0,65,0.00,,,0.00,Wunderground v.1.15,2013-05-06 04:44:00,
2013-05-06 00:49:00,42.4,32.2,30.19,NNW,343,1.0,1.0,67,0.00,,,0.00,Wunderground v.1.15,2013-05-06 04:49:00,
2013-05-06 00:54:00,41.2,32.9,30.19,NNW,343,1.0,1.0,72,0.00,,,0.00,Wunderground v.1.15,2013-05-06 04:54:00,
2013-05-06 00:59:00,40.9,32.6,30.19,NNW,343,1.0,1.0,72,0.00,,,0.00,Wunderground v.1.15,2013-05-06 04:59:00,
2013-05-06 01:05:00,40.4,32.1,30.19,NNW,342,0.0,1.0,72,0.00,,,0.00,Wunderground v.1.15,2013-05-06 05:05:00,
2013-05-06 01:10:00,40.0,31.4,30.19,NNW,342,0.0,1.0,71,0.00,,,0.00,Wunderground v.1.15,2013-05-06 05:10:00,
2013-05-06 01:15:00,40.0,31.7,30.19,NNW,343,0.0,1.0,72,0.00,,,0.00,Wunderground v.1.15,2013-05-06 05:15:00,
2013-05-06 01:20:00,40.5,32.2,30.19,ENE,59,0.0,1.0,72,0.00,,,0.00,Wunderground v.1.15,2013-05-06 05:20:00,
2013-05-06 01:25:00,40.5,32.2,30.19,ENE,59,1.0,1.0,72,0.00,,,0.00,Wunderground v.1.15,2013-05-06 05:25:00,
2013-05-06 01:31:00,39.7,32.1,30.19,ENE,58,0.0,1.0,74,0.00,,,0.00,Wunderground v.1.15,2013-05-06 05:31:00,
2013-05-06 01:36:00,39.4,31.8,30.19,ENE,59,0.0,1.0,74,0.00,,,0.00,Wunderground v.1.15,2013-05-06 05:36:00,
2013-05-06 01:41:00,39.8,32.2,30.19,ENE,59,0.0,1.0,74,0.00,,,0.00,Wunderground v.1.15,2013-05-06 05:41:00,
2013-05-06 01:46:00,39.7,32.1,30.19,ENE,59,1.0,1.0,74,0.00,,,0.00,Wunderground v.1.15,2013-05-06 05:46:00,
2013-05-06 01:51:00,39.3,32.4,30.19,ENE,58,1.0,2.0,76,0.00,,,0.00,Wunderground v.1.15,2013-05-06 05:51:00,
2013-05-06 01:57:00,38.8,32.2,30.19,ENE,58,1.0,2.0,77,0.00,,,0.00,Wunderground v.1.15,2013-05-06 05:57:00,
2013-05-06 02:02:00,38.5,32.2,30.19,ENE,58,0.0,2.0,78,0.00,,,0.00,Wunderground v.1.15,2013-05-06 06:02:00,
2013-05-06 02:07:00,38.5,31.9,30.19,ENE,58,0.0,2.0,77,0.00,,,0.00,Wunderground v.1.15,2013-05-06 06:07:00,
2013-05-06 02:12:00,38.7,32.1,30.19,ENE,58,0.0,2.0,77,0.00,,,0.00,Wunderground v.1.15,2013-05-06 06:12:00,
2013-05-06 02:17:00,38.6,32.0,30.19,ENE,58,0.0,2.0,77,0.00,,,0.00,Wunderground v.1.15,2013-05-06 06:17:00,
2013-05-06 02:23:00,38.4,32.1,30.19,ENE,58,0.0,2.0,78,0.00,,,0.00,Wunderground v.1.15,2013-05-06 06:23:00,
2013-05-06 02:28:00,38.3,32.4,30.19,ENE,58,1.0,2.0,79,0.00,,,0.00,Wunderground v.1.15,2013-05-06 06:28:00,
2013-05-06 02:33:00,38.4,32.5,30.18,ENE,58,1.0,2.0,79,0.00,,,0.00,Wunderground v.1.15,2013-05-06 06:33:00,
2013-05-06 02:38:00,38.4,32.5,30.18,ENE,58,1.0,2.0,79,0.00,,,0.00,Wunderground v.1.15,2013-05-06 06:38:00,
2013-05-06 02:43:00,38.4,32.5,30.18,ENE,58,0.0,2.0,79,0.00,,,0.00,Wunderground v.1.15,2013-05-06 06:43:00,
2013-05-06 02:49:00,38.7,32.4,30.18,ENE,58,0.0,2.0,78,0.00,,,0.00,Wunderground v.1.15,2013-05-06 06:49:00,
2013-05-06 02:54:00,38.8,32.5,30.18,ENE,58,0.0,2.0,78,0.00,,,0.00,Wunderground v.1.15,2013-05-06 06:54:00,
2013-05-06 02:59:00,38.3,32.4,30.18,ENE,58,0.0,2.0,79,0.00,,,0.00,Wunderground v.1.15,2013-05-06 06:59:00,
2013-05-06 03:04:00,37.6,32.0,30.18,ENE,58,0.0,2.0,80,0.00,,,0.00,Wunderground v.1.15,2013-05-06 07:04:00,
2013-05-06 03:09:00,37.6,32.6,30.18,ENE,60,0.0,2.0,82,0.00,,,0.00,Wunderground v.1.15,2013-05-06 07:09:00,
2013-05-06 03:15:00,38.0,32.4,30.18,ENE,59,0.0,2.0,80,0.00,,,0.00,Wunderground v.1.15,2013-05-06 07:15:00,
2013-05-06 03:20:00,37.6,32.3,30.18,ENE,58,0.0,2.0,81,0.00,,,0.00,Wunderground v.1.15,2013-05-06 07:20:00,
2013-05-06 03:25:00,37.2,32.2,30.18,ENE,58,0.0,2.0,82,0.00,,,0.00,Wunderground v.1.15,2013-05-06 07:25:00,
2013-05-06 03:30:00,37.1,32.4,30.18,ENE,58,0.0,2.0,83,0.00,,,0.00,Wunderground v.1.15,2013-05-06 07:30:00,
2013-05-06 03:35:00,37.1,32.4,30.18,ENE,58,1.0,2.0,83,0.00,,,0.00,Wunderground v.1.15,2013-05-06 07:35:00,
2013-05-06 03:40:00,36.8,32.4,30.18,ENE,58,1.0,2.0,84,0.00,,,0.00,Wunderground v.1.15,2013-05-06 07:40:00,
2013-05-06 03:45:00,36.8,32.7,30.18,ENE,58,1.0,2.0,85,0.00,,,0.00,Wunderground v.1.15,2013-05-06 07:45:00,
2013-05-06 03:50:00,37.1,33.0,30.18,ENE,58,1.0,2.0,85,0.00,,,0.00,Wunderground v.1.15,2013-05-06 07:50:00,
2013-05-06 03:55:00,37.3,32.9,30.17,ENE,58,1.0,2.0,84,0.00,,,0.00,Wunderground v.1.15,2013-05-06 07:55:00,
2013-05-06 04:00:00,37.5,33.1,30.17,ENE,58,1.0,1.0,84,0.00,,,0.00,Wunderground v.1.15,2013-05-06 08:00:00,
2013-05-06 04:05:00,37.1,32.4,30.18,ENE,60,0.0,2.0,83,0.00,,,0.00,Wunderground v.1.15,2013-05-06 08:05:00,
2013-05-06 04:11:00,36.3,31.9,30.18,ENE,60,0.0,2.0,84,0.00,,,0.00,Wunderground v.1.15,2013-05-06 08:11:00,
2013-05-06 04:16:00,36.0,31.9,30.18,ENE,59,0.0,2.0,85,0.00,,,0.00,Wunderground v.1.15,2013-05-06 08:16:00,
2013-05-06 04:21:00,35.8,32.0,30.18,ENE,60,0.0,2.0,86,0.00,,,0.00,Wunderground v.1.15,2013-05-06 08:21:00,
2013-05-06 04:26:00,35.3,31.8,30.18,ENE,59,0.0,2.0,87,0.00,,,0.00,Wunderground v.1.15,2013-05-06 08:26:00,
2013-05-06 04:31:00,35.1,31.9,30.18,ENE,59,0.0,2.0,88,0.00,,,0.00,Wunderground v.1.15,2013-05-06 08:31:00,
2013-05-06 04:37:00,34.8,31.6,30.18,ENE,59,0.0,2.0,88,0.00,,,0.00,Wunderground v.1.15,2013-05-06 08:37:00,
2013-05-06 04:42:00,35.1,32.5,30.18,ENE,59,0.0,2.0,90,0.00,,,0.00,Wunderground v.1.15,2013-05-06 08:42:00,
2013-05-06 04:47:00,35.1,32.2,30.19,ENE,58,0.0,2.0,89,0.00,,,0.00,Wunderground v.1.15,2013-05-06 08:47:00,
2013-05-06 04:52:00,34.7,31.8,30.19,ENE,58,0.0,2.0,89,0.00,,,0.00,Wunderground v.1.15,2013-05-06 08:52:00,
2013-05-06 04:57:00,34.6,31.7,30.19,ENE,58,0.0,2.0,89,0.00,,,0.00,Wunderground v.1.15,2013-05-06 08:57:00,
2013-05-06 05:03:00,34.4,31.8,30.19,ENE,58,0.0,2.0,90,0.00,,,0.00,Wunderground v.1.15,2013-05-06 09:03:00,
2013-05-06 05:08:00,34.1,31.5,30.19,ENE,58,0.0,2.0,90,0.00,,,0.00,Wunderground v.1.15,2013-05-06 09:08:00,
2013-05-06 05:13:00,33.9,31.6,30.19,ENE,60,0.0,2.0,91,0.00,,,0.00,Wunderground v.1.15,2013-05-06 09:13:00,
2013-05-06 05:18:00,33.9,31.6,30.20,ENE,58,0.0,2.0,91,0.00,,,0.00,Wunderground v.1.15,2013-05-06 09:18:00,
2013-05-06 05:23:00,33.9,31.6,30.20,ENE,58,0.0,2.0,91,0.00,,,0.00,Wunderground v.1.15,2013-05-06 09:23:00,
2013-05-06 05:28:00,33.9,31.8,30.20,ENE,59,0.0,2.0,92,0.00,,,0.00,Wunderground v.1.15,2013-05-06 09:28:00,
2013-05-06 05:33:00,33.8,31.7,30.20,ENE,58,0.0,2.0,92,0.00,,,0.00,Wunderground v.1.15,2013-05-06 09:33:00,
2013-05-06 05:38:00,33.5,31.4,30.20,ENE,58,0.0,2.0,92,0.00,,,0.00,Wunderground v.1.15,2013-05-06 09:38:00,
2013-05-06 05:43:00,33.6,31.8,30.20,ENE,59,0.0,2.0,93,0.00,,,0.00,Wunderground v.1.15,2013-05-06 09:43:00,
2013-05-06 05:48:00,33.7,31.9,30.20,ENE,58,0.0,2.0,93,0.00,,,0.00,Wunderground v.1.15,2013-05-06 09:48:00,
2013-05-06 05:53:00,33.7,31.9,30.20,ENE,58,0.0,2.0,93,0.00,,,0.00,Wunderground v.1.15,2013-05-06 09:53:00,
2013-05-06 05:59:00,33.6,31.8,30.20,ENE,58,0.0,2.0,93,0.00,,,0.00,Wunderground v.1.15,2013-05-06 09:59:00,
2013-05-06 06:04:00,33.6,31.8,30.20,ENE,58,0.0,2.0,93,0.00,,,0.00,Wunderground v.1.15,2013-05-06 10:04:00,
2013-05-06 06:09:00,33.6,31.8,30.20,ENE,59,0.0,2.0,93,0.00,,,0.00,Wunderground v.1.15,2013-05-06 10:09:00,
2013-05-06 06:14:00,33.9,32.1,30.20,ENE,58,0.0,2.0,93,0.00,,,0.00,Wunderground v.1.15,2013-05-06 10:14:00,
2013-05-06 06:19:00,34.3,32.8,30.20,ENE,58,0.0,2.0,94,0.00,,,0.00,Wunderground v.1.15,2013-05-06 10:19:00,
2013-05-06 06:25:00,34.3,32.5,30.20,ENE,59,0.0,2.0,93,0.00,,,0.00,Wunderground v.1.15,2013-05-06 10:25:00,
2013-05-06 06:30:00,34.2,32.4,30.20,ENE,59,0.0,2.0,93,0.00,,,0.00,Wunderground v.1.15,2013-05-06 10:30:00,
2013-05-06 06:35:00,34.1,32.3,30.20,ENE,60,0.0,2.0,93,0.00,,,0.00,Wunderground v.1.15,2013-05-06 10:35:00,
2013-05-06 06:40:00,34.5,33.0,30.21,ENE,60,0.0,2.0,94,0.00,,,0.00,Wunderground v.1.15,2013-05-06 10:40:00,
2013-05-06 06:45:00,35.2,33.4,30.21,ENE,59,0.0,2.0,93,0.00,,,0.00,Wunderground v.1.15,2013-05-06 10:45:00,
2013-05-06 06:51:00,35.5,33.4,30.21,ENE,60,0.0,2.0,92,0.00,,,0.00,Wunderground v.1.15,2013-05-06 10:51:00,
2013-05-06 06:56:00,35.6,33.5,30.21,ENE,59,0.0,2.0,92,0.00,,,0.00,Wunderground v.1.15,2013-05-06 10:56:00,
2013-05-06 07:01:00,36.5,34.4,30.21,ENE,58,0.0,2.0,92,0.00,,,0.00,Wunderground v.1.15,2013-05-06 11:01:00,
2013-05-06 07:06:00,37.6,35.5,30.21,ENE,58,0.0,2.0,92,0.00,,,0.00,Wunderground v.1.15,2013-05-06 11:06:00,
2013-05-06 07:11:00,38.3,35.6,30.21,ENE,58,0.0,2.0,90,0.00,,,0.00,Wunderground v.1.15,2013-05-06 11:11:00,
2013-05-06 07:17:00,39.9,37.2,30.21,ENE,58,0.0,2.0,90,0.00,,,0.00,Wunderground v.1.15,2013-05-06 11:17:00,
2013-05-06 07:22:00,40.4,36.2,30.21,ENE,58,0.0,2.0,85,0.00,,,0.00,Wunderground v.1.15,2013-05-06 11:22:00,
2013-05-06 07:27:00,40.5,36.3,30.21,ENE,58,0.0,2.0,85,0.00,,,0.00,Wunderground v.1.15,2013-05-06 11:27:00,
2013-05-06 07:32:00,40.9,37.0,30.21,ENE,58,0.0,2.0,86,0.00,,,0.00,Wunderground v.1.15,2013-05-06 11:32:00,
2013-05-06 07:37:00,41.7,37.8,30.21,ENE,58,0.0,2.0,86,0.00,,,0.00,Wunderground v.1.15,2013-05-06 11:37:00,
2013-05-06 07:43:00,43.2,38.7,30.21,ENE,58,0.0,2.0,84,0.00,,,0.00,Wunderground v.1.15,2013-05-06 11:43:00,
2013-05-06 07:48:00,44.2,38.7,30.22,ENE,58,0.0,2.0,81,0.00,,,0.00,Wunderground v.1.15,2013-05-06 11:48:00,
2013-05-06 07:53:00,44.9,38.8,30.22,East,101,0.0,2.0,79,0.00,,,0.00,Wunderground v.1.15,2013-05-06 11:53:00,
2013-05-06 07:58:00,45.5,38.7,30.22,ESE,106,1.0,2.0,77,0.00,,,0.00,Wunderground v.1.15,2013-05-06 11:58:00,
2013-05-06 08:03:00,46.0,38.9,30.22,ESE,105,0.0,2.0,76,0.00,,,0.00,Wunderground v.1.15,2013-05-06 12:03:00,
2013-05-06 08:09:00,46.9,39.4,30.21,ESE,105,0.0,2.0,75,0.00,,,0.00,Wunderground v.1.15,2013-05-06 12:09:00,
2013-05-06 08:14:00,47.7,39.5,30.22,ESE,105,0.0,2.0,73,0.00,,,0.00,Wunderground v.1.15,2013-05-06 12:14:00,
2013-05-06 08:19:00,48.6,40.0,30.22,ESE,105,0.0,2.0,72,0.00,,,0.00,Wunderground v.1.15,2013-05-06 12:19:00,
2013-05-06 08:24:00,49.6,40.6,30.22,SSE,153,0.0,2.0,71,0.00,,,0.00,Wunderground v.1.15,2013-05-06 12:24:00,
2013-05-06 08:29:00,50.5,41.4,30.22,South,181,0.0,2.0,71,0.00,,,0.00,Wunderground v.1.15,2013-05-06 12:29:00,
2013-05-06 08:35:00,51.4,41.6,30.21,SW,219,0.0,2.0,69,0.00,,,0.00,Wunderground v.1.15,2013-05-06 12:35:00,
2013-05-06 08:40:00,52.0,41.8,30.21,WSW,253,1.0,2.0,68,0.00,,,0.00,Wunderground v.1.15,2013-05-06 12:40:00,
2013-05-06 08:45:00,52.8,42.5,30.21,WSW,245,1.0,2.0,68,0.00,,,0.00,Wunderground v.1.15,2013-05-06 12:45:00,
2013-05-06 08:50:00,54.2,41.0,30.21,ENE,58,1.0,2.0,61,0.00,,,0.00,Wunderground v.1.15,2013-05-06 12:50:00,
2013-05-06 08:55:00,55.1,40.6,30.21,NE,55,1.0,2.0,58,0.00,,,0.00,Wunderground v.1.15,2013-05-06 12:55:00,
2013-05-06 09:00:00,55.8,41.2,30.21,East,82,2.0,2.0,58,0.00,,,0.00,Wunderground v.1.15,2013-05-06 13:00:00,
2013-05-06 09:06:00,56.1,40.1,30.21,ESE,119,2.0,5.0,55,0.00,,,0.00,Wunderground v.1.15,2013-05-06 13:06:00,
2013-05-06 09:11:00,56.2,38.3,30.21,ENE,78,2.0,3.0,51,0.00,,,0.00,Wunderground v.1.15,2013-05-06 13:11:00,
2013-05-06 09:16:00,56.5,37.6,30.21,East,79,2.0,4.0,49,0.00,,,0.00,Wunderground v.1.15,2013-05-06 13:16:00,
2013-05-06 09:21:00,56.7,39.7,30.21,ENE,73,2.0,3.0,53,0.00,,,0.00,Wunderground v.1.15,2013-05-06 13:21:00,
2013-05-06 09:27:00,57.1,35.9,30.21,ENE,61,3.0,4.0,45,0.00,,,0.00,Wunderground v.1.15,2013-05-06 13:27:00,
2013-05-06 09:32:00,57.4,36.2,30.21,ENE,73,3.0,4.0,45,0.00,,,0.00,Wunderground v.1.15,2013-05-06 13:32:00,
2013-05-06 09:37:00,57.5,35.2,30.21,ENE,75,3.0,4.0,43,0.00,,,0.00,Wunderground v.1.15,2013-05-06 13:37:00,
2013-05-06 09:42:00,58.1,33.9,30.21,ENE,67,2.0,5.0,40,0.00,,,0.00,Wunderground v.1.15,2013-05-06 13:42:00,
2013-05-06 09:47:00,58.1,32.6,30.21,East,97,3.0,7.0,38,0.00,,,0.00,Wunderground v.1.15,2013-05-06 13:47:00,
2013-05-06 09:52:00,58.6,32.4,30.21,ENE,75,3.0,5.0,37,0.00,,,0.00,Wunderground v.1.15,2013-05-06 13:52:00,
2013-05-06 09:57:00,58.9,35.2,30.21,ESE,120,3.0,5.0,41,0.00,,,0.00,Wunderground v.1.15,2013-05-06 13:57:00,
2013-05-06 10:02:00,59.5,37.0,30.20,SSW,203,2.0,3.0,43,0.00,,,0.00,Wunderground v.1.15,2013-05-06 14:02:00,
2013-05-06 10:07:00,60.0,32.9,30.21,East,93,2.0,3.0,36,0.00,,,0.00,Wunderground v.1.15,2013-05-06 14:07:00,
2013-05-06 10:12:00,60.1,31.6,30.21,East,90,2.0,6.0,34,0.00,,,0.00,Wunderground v.1.15,2013-05-06 14:12:00,
2013-05-06 10:18:00,60.5,32.7,30.21,SSW,198,3.0,6.0,35,0.00,,,0.00,Wunderground v.1.15,2013-05-06 14:18:00,
2013-05-06 10:23:00,60.9,32.3,30.21,SSW,196,3.0,5.0,34,0.00,,,0.00,Wunderground v.1.15,2013-05-06 14:23:00,
2013-05-06 10:28:00,61.4,36.2,30.21,ENE,68,2.0,5.0,39,0.00,,,0.00,Wunderground v.1.15,2013-05-06 14:28:00,
2013-05-06 10:33:00,61.8,35.2,30.20,NW,314,2.0,3.0,37,0.00,,,0.00,Wunderground v.1.15,2013-05-06 14:33:00,
2013-05-06 10:38:00,62.3,35.0,30.20,NE,43,2.0,3.0,36,0.00,,,0.00,Wunderground v.1.15,2013-05-06 14:38:00,
2013-05-06 10:43:00,62.9,33.3,30.20,West,264,2.0,2.0,33,0.00,,,0.00,Wunderground v.1.15,2013-05-06 14:43:00,
2013-05-06 10:49:00,63.7,31.7,30.20,South,187,2.0,3.0,30,0.00,,,0.00,Wunderground v.1.15,2013-05-06 14:49:00,
2013-05-06 10:54:00,64.1,32.8,30.20,SE,145,2.0,2.0,31,0.00,,,0.00,Wunderground v.1.15,2013-05-06 14:54:00,
2013-05-06 10:59:00,64.6,33.3,30.20,South,176,1.0,2.0,31,0.00,,,0.00,Wunderground v.1.15,2013-05-06 14:59:00,
2013-05-06 11:04:00,65.5,34.8,30.20,East,82,1.0,2.0,32,0.00,,,0.00,Wunderground v.1.15,2013-05-06 15:04:00,
2013-05-06 11:09:00,65.0,36.7,30.20,ENE,61,1.0,3.0,35,0.00,,,0.00,Wunderground v.1.15,2013-05-06 15:09:00,
2013-05-06 11:15:00,65.3,33.0,30.20,West,277,2.0,3.0,30,0.00,,,0.00,Wunderground v.1.15,2013-05-06 15:15:00,
2013-05-06 11:20:00,65.5,35.6,30.20,NW,305,1.0,1.0,33,0.00,,,0.00,Wunderground v.1.15,2013-05-06 15:20:00,
2013-05-06 11:25:00,65.6,33.3,30.20,WSW,238,1.0,4.0,30,0.00,,,0.00,Wunderground v.1.15,2013-05-06 15:25:00,
2013-05-06 11:30:00,65.9,34.4,30.19,West,278,1.0,2.0,31,0.00,,,0.00,Wunderground v.1.15,2013-05-06 15:30:00,
2013-05-06 11:35:00,66.0,33.7,30.19,South,183,2.0,4.0,30,0.00,,,0.00,Wunderground v.1.15,2013-05-06 15:35:00,
2013-05-06 11:41:00,66.3,34.7,30.19,SSE,167,3.0,3.0,31,0.00,,,0.00,Wunderground v.1.15,2013-05-06 15:41:00,
2013-05-06 11:46:00,66.5,34.1,30.19,NNE,32,2.0,3.0,30,0.00,,,0.00,Wunderground v.1.15,2013-05-06 15:46:00,
2013-05-06 11:51:00,66.6,33.3,30.19,ENE,60,2.0,4.0,29,0.00,,,0.00,Wunderground v.1.15,2013-05-06 15:51:00,
2013-05-06 11:56:00,67.2,37.1,30.19,SSE,158,2.0,4.0,33,0.00,,,0.00,Wunderground v.1.15,2013-05-06 15:56:00,
2013-05-06 12:01:00,67.5,30.4,30.19,WNW,283,2.0,4.0,25,0.00,,,0.00,Wunderground v.1.15,2013-05-06 16:01:00,
2013-05-06 12:07:00,67.3,33.1,30.19,WNW,291,2.0,4.0,28,0.00,,,0.00,Wunderground v.1.15,2013-05-06 16:07:00,
2013-05-06 12:12:00,67.9,31.7,30.18,North,7,2.0,2.0,26,0.00,,,0.00,Wunderground v.1.15,2013-05-06 16:12:00,
2013-05-06 12:17:00,68.1,30.9,30.18,NNW,340,2.0,3.0,25,0.00,,,0.00,Wunderground v.1.15,2013-05-06 16:17:00,
2013-05-06 12:22:00,68.2,29.0,30.18,WSW,238,2.0,3.0,23,0.00,,,0.00,Wunderground v.1.15,2013-05-06 16:22:00,
2013-05-06 12:27:00,68.5,30.3,30.18,West,273,2.0,3.0,24,0.00,,,0.00,Wunderground v.1.15,2013-05-06 16:27:00,
2013-05-06 12:33:00,68.9,29.5,30.18,ENE,75,2.0,2.0,23,0.00,,,0.00,Wunderground v.1.15,2013-05-06 16:33:00,
2013-05-06 12:38:00,67.9,29.7,30.17,ESE,107,3.0,7.0,24,0.00,,,0.00,Wunderground v.1.15,2013-05-06 16:38:00,
2013-05-06 12:43:00,68.8,29.5,30.17,WNW,293,2.0,4.0,23,0.00,,,0.00,Wunderground v.1.15,2013-05-06 16:43:00,
2013-05-06 12:48:00,69.4,30.0,30.17,NW,318,2.0,4.0,23,0.00,,,0.00,Wunderground v.1.15,2013-05-06 16:48:00,
2013-05-06 12:53:00,70.0,29.4,30.16,NW,323,2.0,4.0,22,0.00,,,0.00,Wunderground v.1.15,2013-05-06 16:53:00,
2013-05-06 12:59:00,69.7,29.1,30.16,SSW,193,3.0,4.0,22,0.00,,,0.00,Wunderground v.1.15,2013-05-06 16:59:00,
2013-05-06 13:04:00,69.5,30.0,30.16,SE,143,3.0,3.0,23,0.00,,,0.00,Wunderground v.1.15,2013-05-06 17:04:00,
2013-05-06 13:09:00,69.0,27.4,30.16,NE,53,4.0,5.0,21,0.00,,,0.00,Wunderground v.1.15,2013-05-06 17:09:00,
2013-05-06 13:14:00,69.1,31.8,30.15,ENE,67,3.0,4.0,25,0.00,,,0.00,Wunderground v.1.15,2013-05-06 17:14:00,
2013-05-06 13:19:00,69.6,30.1,30.15,South,175,3.0,5.0,23,0.00,,,0.00,Wunderground v.1.15,2013-05-06 17:19:00,
2013-05-06 13:24:00,69.4,30.0,30.15,WNW,298,3.0,5.0,23,0.00,,,0.00,Wunderground v.1.15,2013-05-06 17:24:00,
2013-05-06 13:29:00,70.3,29.6,30.15,NW,307,3.0,5.0,22,0.00,,,0.00,Wunderground v.1.15,2013-05-06 17:29:00,
2013-05-06 13:34:00,70.8,31.1,30.14,WNW,283,2.0,3.0,23,0.00,,,0.00,Wunderground v.1.15,2013-05-06 17:34:00,
2013-05-06 13:39:00,71.9,34.1,30.14,WNW,287,1.0,3.0,25,0.00,,,0.00,Wunderground v.1.15,2013-05-06 17:39:00,
2013-05-06 13:44:00,72.2,28.9,30.14,WNW,284,2.0,5.0,20,0.00,,,0.00,Wunderground v.1.15,2013-05-06 17:44:00,
2013-05-06 13:49:00,71.8,30.9,30.14,West,264,3.0,5.0,22,0.00,,,0.00,Wunderground v.1.15,2013-05-06 17:49:00,
2013-05-06 13:55:00,71.9,28.6,30.14,NNW,328,3.0,4.0,20,0.00,,,0.00,Wunderground v.1.15,2013-05-06 17:55:00,
2013-05-06 14:00:00,71.7,28.5,30.14,WSW,257,2.0,2.0,20,0.00,,,0.00,Wunderground v.1.15,2013-05-06 18:00:00,
2013-05-06 14:05:00,72.0,27.5,30.14,NNE,32,2.0,3.0,19,0.00,,,0.00,Wunderground v.1.15,2013-05-06 18:05:00,
2013-05-06 14:10:00,72.6,31.5,30.14,North,349,1.0,3.0,22,0.00,,,0.00,Wunderground v.1.15,2013-05-06 18:10:00,
2013-05-06 14:15:00,73.3,32.1,30.13,East,81,1.0,4.0,22,0.00,,,0.00,Wunderground v.1.15,2013-05-06 18:15:00,
2013-05-06 14:21:00,73.9,27.7,30.13,SSE,155,2.0,2.0,18,0.00,,,0.00,Wunderground v.1.15,2013-05-06 18:21:00,
2013-05-06 14:26:00,73.6,28.8,30.13,West,266,4.0,5.0,19,0.00,,,0.00,Wunderground v.1.15,2013-05-06 18:26:00,
2013-05-06 14:31:00,73.5,31.1,30.13,WNW,297,4.0,4.0,21,0.00,,,0.00,Wunderground v.1.15,2013-05-06 18:31:00,
2013-05-06 14:36:00,73.8,27.6,30.13,WNW,288,3.0,5.0,18,0.00,,,0.00,Wunderground v.1.15,2013-05-06 18:36:00,
2013-05-06 14:41:00,73.8,27.6,30.13,NW,323,3.0,4.0,18,0.00,,,0.00,Wunderground v.1.15,2013-05-06 18:41:00,
2013-05-06 14:47:00,73.3,28.5,30.13,WNW,293,3.0,4.0,19,0.00,,,0.00,Wunderground v.1.15,2013-05-06 18:47:00,
2013-05-06 14:52:00,73.8,26.2,30.12,South,179,3.0,4.0,17,0.00,,,0.00,Wunderground v.1.15,2013-05-06 18:52:00,
2013-05-06 14:57:00,73.9,27.7,30.12,SW,214,3.0,4.0,18,0.00,,,0.00,Wunderground v.1.15,2013-05-06 18:57:00,
2013-05-06 15:02:00,74.0,30.4,30.12,East,99,3.0,3.0,20,0.00,,,0.00,Wunderground v.1.15,2013-05-06 19:02:00,
2013-05-06 15:07:00,73.5,27.4,30.12,SW,229,2.0,3.0,18,0.00,,,0.00,Wunderground v.1.15,2013-05-06 19:07:00,
2013-05-06 15:13:00,73.9,31.5,30.11,WNW,293,2.0,3.0,21,0.00,,,0.00,Wunderground v.1.15,2013-05-06 19:13:00,
2013-05-06 15:18:00,74.6,28.3,30.11,SW,229,2.0,4.0,18,0.00,,,0.00,Wunderground v.1.15,2013-05-06 19:18:00,
2013-05-06 15:23:00,74.3,25.2,30.11,NW,304,2.0,4.0,16,0.00,,,0.00,Wunderground v.1.15,2013-05-06 19:23:00,
2013-05-06 15:28:00,74.6,28.3,30.11,NW,311,2.0,5.0,18,0.00,,,0.00,Wunderground v.1.15,2013-05-06 19:28:00,
2013-05-06 15:33:00,74.6,32.1,30.11,SE,124,2.0,5.0,21,0.00,,,0.00,Wunderground v.1.15,2013-05-06 19:33:00,
2013-05-06 15:39:00,74.6,28.3,30.11,SSE,153,2.0,5.0,18,0.00,,,0.00,Wunderground v.1.15,2013-05-06 19:39:00,
2013-05-06 15:44:00,74.2,26.5,30.10,ESE,115,3.0,4.0,17,0.00,,,0.00,Wunderground v.1.15,2013-05-06 19:44:00,
2013-05-06 15:49:00,74.5,26.8,30.10,WSW,255,3.0,4.0,17,0.00,,,0.00,Wunderground v.1.15,2013-05-06 19:49:00,
2013-05-06 15:54:00,74.2,25.1,30.10,SSE,167,3.0,4.0,16,0.00,,,0.00,Wunderground v.1.15,2013-05-06 19:54:00,
2013-05-06 15:59:00,74.8,27.0,30.10,WSW,255,2.0,4.0,17,0.00,,,0.00,Wunderground v.1.15,2013-05-06 19:59:00,
2013-05-06 16:05:00,75.1,28.7,30.10,NW,308,2.0,3.0,18,0.00,,,0.00,Wunderground v.1.15,2013-05-06 20:05:00,
2013-05-06 16:10:00,74.9,22.5,30.10,SE,131,2.0,2.0,14,0.00,,,0.00,Wunderground v.1.15,2013-05-06 20:10:00,
2013-05-06 16:15:00,75.1,31.3,30.09,West,280,2.0,5.0,20,0.00,,,0.00,Wunderground v.1.15,2013-05-06 20:15:00,
2013-05-06 16:20:00,75.2,24.3,30.09,SSW,205,2.0,2.0,15,0.00,,,0.00,Wunderground v.1.15,2013-05-06 20:20:00,
2013-05-06 16:25:00,75.1,27.3,30.09,West,266,2.0,5.0,17,0.00,,,0.00,Wunderground v.1.15,2013-05-06 20:25:00,
2013-05-06 16:31:00,74.8,22.4,30.09,West,280,2.0,6.0,14,0.00,,,0.00,Wunderground v.1.15,2013-05-06 20:31:00,
2013-05-06 16:36:00,74.8,28.4,30.09,ENE,72,2.0,6.0,18,0.00,,,0.00,Wunderground v.1.15,2013-05-06 20:36:00,
2013-05-06 16:41:00,75.1,24.3,30.09,North,3,1.0,2.0,15,0.00,,,0.00,Wunderground v.1.15,2013-05-06 20:41:00,
2013-05-06 16:46:00,75.1,28.7,30.09,WSW,246,1.0,3.0,18,0.00,,,0.00,Wunderground v.1.15,2013-05-06 20:46:00,
2013-05-06 16:51:00,75.2,25.9,30.09,SW,228,2.0,3.0,16,0.00,,,0.00,Wunderground v.1.15,2013-05-06 20:51:00,
2013-05-06 16:56:00,74.7,27.0,30.09,WSW,248,1.0,3.0,17,0.00,,,0.00,Wunderground v.1.15,2013-05-06 20:56:00,
2013-05-06 17:01:00,75.1,31.3,30.09,NW,323,2.0,5.0,20,0.00,,,0.00,Wunderground v.1.15,2013-05-06 21:01:00,
2013-05-06 17:06:00,74.9,31.1,30.09,SE,133,2.0,5.0,20,0.00,,,0.00,Wunderground v.1.15,2013-05-06 21:06:00,
2013-05-06 17:11:00,75.2,30.1,30.08,SSW,195,2.0,2.0,19,0.00,,,0.00,Wunderground v.1.15,2013-05-06 21:11:00,
2013-05-06 17:16:00,75.1,25.8,30.08,NNE,33,2.0,5.0,16,0.00,,,0.00,Wunderground v.1.15,2013-05-06 21:16:00,
2013-05-06 17:21:00,74.9,27.1,30.09,SSW,208,2.0,2.0,17,0.00,,,0.00,Wunderground v.1.15,2013-05-06 21:21:00,
2013-05-06 17:27:00,75.6,27.7,30.08,ENE,74,1.0,2.0,17,0.00,,,0.00,Wunderground v.1.15,2013-05-06 21:27:00,
2013-05-06 17:32:00,75.4,39.1,30.08,ESE,105,1.0,2.0,27,0.00,,,0.00,Wunderground v.1.15,2013-05-06 21:32:00,
2013-05-06 17:37:00,74.3,38.1,30.08,SE,134,2.0,2.0,27,0.00,,,0.00,Wunderground v.1.15,2013-05-06 21:37:00,
2013-05-06 17:42:00,74.0,39.7,30.08,SE,145,2.0,2.0,29,0.00,,,0.00,Wunderground v.1.15,2013-05-06 21:42:00,
2013-05-06 17:47:00,73.4,39.2,30.08,SE,129,2.0,5.0,29,0.00,,,0.00,Wunderground v.1.15,2013-05-06 21:47:00,
2013-05-06 17:53:00,72.6,41.0,30.08,East,94,3.0,5.0,32,0.00,,,0.00,Wunderground v.1.15,2013-05-06 21:53:00,
2013-05-06 17:58:00,72.1,39.8,30.08,NE,52,3.0,6.0,31,0.00,,,0.00,Wunderground v.1.15,2013-05-06 21:58:00,
2013-05-06 18:03:00,71.7,40.3,30.08,ESE,117,4.0,5.0,32,0.00,,,0.00,Wunderground v.1.15,2013-05-06 22:03:00,
2013-05-06 18:08:00,71.8,41.9,30.08,ESE,113,3.0,5.0,34,0.00,,,0.00,Wunderground v.1.15,2013-05-06 22:08:00,
2013-05-06 18:13:00,71.4,40.0,30.08,East,86,2.0,4.0,32,0.00,,,0.00,Wunderground v.1.15,2013-05-06 22:13:00,
2013-05-06 18:19:00,70.7,41.7,30.07,East,81,3.0,5.0,35,0.00,,,0.00,Wunderground v.1.15,2013-05-06 22:19:00,
2013-05-06 18:24:00,70.2,41.3,30.07,East,101,2.0,3.0,35,0.00,,,0.00,Wunderground v.1.15,2013-05-06 22:24:00,
2013-05-06 18:29:00,69.8,40.9,30.08,ENE,75,2.0,4.0,35,0.00,,,0.00,Wunderground v.1.15,2013-05-06 22:29:00,
2013-05-06 18:34:00,69.6,41.5,30.07,East,89,2.0,4.0,36,0.00,,,0.00,Wunderground v.1.15,2013-05-06 22:34:00,
2013-05-06 18:39:00,69.1,40.3,30.08,East,83,2.0,4.0,35,0.00,,,0.00,Wunderground v.1.15,2013-05-06 22:39:00,
2013-05-06 18:45:00,68.6,41.3,30.08,ENE,63,2.0,4.0,37,0.00,,,0.00,Wunderground v.1.15,2013-05-06 22:45:00,
2013-05-06 18:50:00,68.1,40.8,30.08,East,83,3.0,3.0,37,0.00,,,0.00,Wunderground v.1.15,2013-05-06 22:50:00,
2013-05-06 18:55:00,67.6,41.7,30.08,ESE,110,3.0,4.0,39,0.00,,,0.00,Wunderground v.1.15,2013-05-06 22:55:00,
2013-05-06 19:00:00,67.4,41.6,30.08,NE,52,2.0,3.0,39,0.00,,,0.00,Wunderground v.1.15,2013-05-06 23:00:00,
2013-05-06 19:05:00,67.1,40.6,30.08,East,83,3.0,6.0,38,0.00,,,0.00,Wunderground v.1.15,2013-05-06 23:05:00,
2013-05-06 19:11:00,66.8,41.0,30.08,ENE,78,3.0,3.0,39,0.00,,,0.00,Wunderground v.1.15,2013-05-06 23:11:00,
2013-05-06 19:16:00,66.3,41.2,30.08,ENE,64,3.0,6.0,40,0.00,,,0.00,Wunderground v.1.15,2013-05-06 23:16:00,
2013-05-06 19:21:00,65.8,41.4,30.08,East,84,2.0,2.0,41,0.00,,,0.00,Wunderground v.1.15,2013-05-06 23:21:00,
2013-05-06 19:26:00,65.2,40.9,30.08,NE,41,2.0,7.0,41,0.00,,,0.00,Wunderground v.1.15,2013-05-06 23:26:00,
2013-05-06 19:31:00,65.0,41.3,30.09,SSW,204,2.0,2.0,42,0.00,,,0.00,Wunderground v.1.15,2013-05-06 23:31:00,
2013-05-06 19:37:00,64.4,41.4,30.09,East,85,2.0,2.0,43,0.00,,,0.00,Wunderground v.1.15,2013-05-06 23:37:00,
2013-05-06 19:42:00,64.1,41.7,30.09,East,81,2.0,3.0,44,0.00,,,0.00,Wunderground v.1.15,2013-05-06 23:42:00,
2013-05-06 19:47:00,63.7,41.9,30.09,SSW,203,1.0,3.0,45,0.00,,,0.00,Wunderground v.1.15,2013-05-06 23:47:00,
2013-05-06 19:52:00,63.1,42.0,30.09,East,87,1.0,3.0,46,0.00,,,0.00,Wunderground v.1.15,2013-05-06 23:52:00,
2013-05-06 19:57:00,62.7,41.6,30.09,West,273,1.0,3.0,46,0.00,,,0.00,Wunderground v.1.15,2013-05-06 23:57:00,
2013-05-06 20:03:00,62.0,41.5,30.09,East,91,0.0,2.0,47,0.00,,,0.00,Wunderground v.1.15,2013-05-07 00:03:00,
2013-05-06 20:08:00,61.2,41.9,30.10,WSW,253,0.0,2.0,49,0.00,,,0.00,Wunderground v.1.15,2013-05-07 00:08:00,
2013-05-06 20:13:00,61.3,41.4,30.10,East,82,1.0,2.0,48,0.00,,,0.00,Wunderground v.1.15,2013-05-07 00:13:00,
2013-05-06 20:18:00,60.9,41.6,30.10,East,82,0.0,2.0,49,0.00,,,0.00,Wunderground v.1.15,2013-05-07 00:18:00,
2013-05-06 20:23:00,60.1,41.4,30.10,East,82,0.0,2.0,50,0.00,,,0.00,Wunderground v.1.15,2013-05-07 00:23:00,
2013-05-06 20:28:00,59.3,41.2,30.10,East,82,0.0,2.0,51,0.00,,,0.00,Wunderground v.1.15,2013-05-07 00:28:00,
2013-05-06 20:33:00,58.7,41.6,30.11,East,82,0.0,1.0,53,0.00,,,0.00,Wunderground v.1.15,2013-05-07 00:33:00,
2013-05-06 20:38:00,58.6,41.5,30.11,ENE,75,0.0,1.0,53,0.00,,,0.00,Wunderground v.1.15,2013-05-07 00:38:00,
2013-05-06 20:43:00,58.9,41.8,30.11,West,269,0.0,2.0,53,0.00,,,0.00,Wunderground v.1.15,2013-05-07 00:43:00,
2013-05-06 20:48:00,59.5,42.3,30.11,SW,233,1.0,2.0,53,0.00,,,0.00,Wunderground v.1.15,2013-05-07 00:48:00,
2013-05-06 20:53:00,59.1,42.5,30.11,WSW,250,1.0,1.0,54,0.00,,,0.00,Wunderground v.1.15,2013-05-07 00:53:00,
2013-05-06 20:58:00,59.0,42.8,30.11,SSW,200,0.0,1.0,55,0.00,,,0.00,Wunderground v.1.15,2013-05-07 00:58:00,
2013-05-06 21:04:00,59.3,43.1,30.12,WSW,250,1.0,8.0,55,0.00,,,0.00,Wunderground v.1.15,2013-05-07 01:04:00,
2013-05-06 21:09:00,59.4,43.2,30.12,East,92,0.0,8.0,55,0.00,,,0.00,Wunderground v.1.15,2013-05-07 01:09:00,
2013-05-06 21:14:00,59.3,43.1,30.12,ENE,70,0.0,8.0,55,0.00,,,0.00,Wunderground v.1.15,2013-05-07 01:14:00,
2013-05-06 21:19:00,59.1,43.4,30.12,West,271,0.0,8.0,56,0.00,,,0.00,Wunderground v.1.15,2013-05-07 01:19:00,
2013-05-06 21:24:00,59.0,43.8,30.12,WNW,288,1.0,8.0,57,0.00,,,0.00,Wunderground v.1.15,2013-05-07 01:24:00,
2013-05-06 21:30:00,59.1,43.9,30.13,ESE,112,1.0,8.0,57,0.00,,,0.00,Wunderground v.1.15,2013-05-07 01:30:00,
2013-05-06 21:35:00,59.2,44.0,30.13,SW,226,0.0,8.0,57,0.00,,,0.00,Wunderground v.1.15,2013-05-07 01:35:00,
2013-05-06 21:40:00,59.0,43.8,30.13,SW,219,0.0,8.0,57,0.00,,,0.00,Wunderground v.1.15,2013-05-07 01:40:00,
2013-05-06 21:45:00,58.5,43.8,30.13,South,191,0.0,8.0,58,0.00,,,0.00,Wunderground v.1.15,2013-05-07 01:45:00,
2013-05-06 21:50:00,58.0,43.7,30.13,SSE,148,0.0,8.0,59,0.00,,,0.00,Wunderground v.1.15,2013-05-07 01:50:00,
2013-05-06 21:56:00,57.8,44.0,30.14,West,263,0.0,8.0,60,0.00,,,0.00,Wunderground v.1.15,2013-05-07 01:56:00,
2013-05-06 22:01:00,57.8,44.0,30.14,South,191,0.0,8.0,60,0.00,,,0.00,Wunderground v.1.15,2013-05-07 02:01:00,
2013-05-06 22:06:00,57.5,44.1,30.14,SW,221,0.0,8.0,61,0.00,,,0.00,Wunderground v.1.15,2013-05-07 02:06:00,
2013-05-06 22:11:00,57.5,44.1,30.14,SW,225,0.0,8.0,61,0.00,,,0.00,Wunderground v.1.15,2013-05-07 02:11:00,
2013-05-06 22:16:00,57.5,44.1,30.14,SW,226,1.0,8.0,61,0.00,,,0.00,Wunderground v.1.15,2013-05-07 02:16:00,
2013-05-06 22:22:00,57.2,44.3,30.14,SSW,207,1.0,8.0,62,0.00,,,0.00,Wunderground v.1.15,2013-05-07 02:22:00,
2013-05-06 22:27:00,57.0,44.5,30.14,WSW,238,0.0,8.0,63,0.00,,,0.00,Wunderground v.1.15,2013-05-07 02:27:00,
2013-05-06 22:32:00,56.8,44.7,30.14,South,188,1.0,8.0,64,0.00,,,0.00,Wunderground v.1.15,2013-05-07 02:32:00,
2013-05-06 22:37:00,56.9,44.8,30.14,ESE,120,1.0,8.0,64,0.00,,,0.00,Wunderground v.1.15,2013-05-07 02:37:00,
2013-05-06 22:42:00,57.0,44.9,30.14,SSE,164,1.0,8.0,64,0.00,,,0.00,Wunderground v.1.15,2013-05-07 02:42:00,
2013-05-06 22:47:00,56.8,45.2,30.14,SSE,158,1.0,8.0,65,0.00,,,0.00,Wunderground v.1.15,2013-05-07 02:47:00,
2013-05-06 22:53:00,56.5,46.1,30.14,SSW,193,1.0,8.0,68,0.00,,,0.00,Wunderground v.1.15,2013-05-07 02:53:00,
2013-05-06 22:58:00,56.4,46.0,30.14,SSE,153,1.0,8.0,68,0.00,,,0.00,Wunderground v.1.15,2013-05-07 02:58:00,
2013-05-06 23:03:00,56.2,46.2,30.14,SW,225,0.0,8.0,69,0.00,,,0.00,Wunderground v.1.15,2013-05-07 03:03:00,
2013-05-06 23:08:00,55.9,46.3,30.13,SW,217,0.0,8.0,70,0.00,,,0.00,Wunderground v.1.15,2013-05-07 03:08:00,
2013-05-06 23:13:00,55.6,46.7,30.13,SW,217,0.0,8.0,72,0.00,,,0.00,Wunderground v.1.15,2013-05-07 03:13:00,
2013-05-06 23:18:00,55.5,47.0,30.13,SSE,150,0.0,8.0,73,0.00,,,0.00,Wunderground v.1.15,2013-05-07 03:18:00,
2013-05-06 23:23:00,55.3,47.2,30.13,WSW,242,0.0,8.0,74,0.00,,,0.00,Wunderground v.1.15,2013-05-07 03:23:00,
2013-05-06 23:28:00,55.2,47.1,30.13,WSW,242,0.0,8.0,74,0.00,,,0.00,Wunderground v.1.15,2013-05-07 03:28:00,
2013-05-06 23:33:00,55.1,47.3,30.14,SSE,164,0.0,8.0,75,0.00,,,0.00,Wunderground v.1.15,2013-05-07 03:33:00,
2013-05-06 23:38:00,55.2,47.4,30.13,WNW,292,0.0,8.0,75,0.00,,,0.00,Wunderground v.1.15,2013-05-07 03:38:00,
2013-05-06 23:44:00,54.9,47.5,30.14,WNW,294,0.0,8.0,76,0.00,,,0.00,Wunderground v.1.15,2013-05-07 03:44:00,
2013-05-06 23:49:00,54.9,47.5,30.14,WNW,294,0.0,8.0,76,0.00,,,0.00,Wunderground v.1.15,2013-05-07 03:49:00,
2013-05-06 23:54:00,54.7,47.6,30.14,WNW,293,0.0,8.0,77,0.00,,,0.00,Wunderground v.1.15,2013-05-07 03:54:00,
2013-05-06 23:59:00,54.3,47.6,30.14,WNW,292,0.0,8.0,78,0.00,,,0.00,Wunderground v.1.15,2013-05-07 03:59:00,